TimeEDT,TemperatureF,Dew PointF,Humidity,Sea Level PressureIn,VisibilityMPH,Wind Direction,Wind SpeedMPH,Gust SpeedMPH,PrecipitationIn,Events,Conditions,WindDirDegrees,DateUTC
12:02 AM,75.0,72.0,90,30.31,7.0,Calm,Calm,-,0.00,Rain,Light Rain,0,2013-07-14 04:02:00
12:43 AM,73.9,72.0,93,30.31,5.0,East,3.5,-,0.01,,Mostly Cloudy,100,2013-07-14 04:43:00
12:51 AM,73.9,72.0,93,30.29,5.0,Calm,Calm,-,0.01,,Mostly Cloudy,0,2013-07-14 04:51:00
1:51 AM,75.0,73.0,94,30.30,6.0,NE,3.5,-,N/A,,Overcast,50,2013-07-14 05:51:00
2:51 AM,73.9,73.0,97,30.30,5.0,SE,3.5,-,N/A,,Overcast,140,2013-07-14 06:51:00
3:21 AM,73.9,72.0,93,30.33,5.0,Calm,Calm,-,N/A,,Mostly Cloudy,0,2013-07-14 07:21:00
3:46 AM,73.4,71.6,94,30.33,5.0,Calm,Calm,-,N/A,,Mostly Cloudy,0,2013-07-14 07:46:00
3:51 AM,73.9,72.0,93,30.30,5.0,Calm,Calm,-,N/A,,Mostly Cloudy,0,2013-07-14 07:51:00
4:06 AM,73.9,72.0,93,30.33,4.0,North,3.5,-,N/A,,Mostly Cloudy,360,2013-07-14 08:06:00
4:17 AM,73.9,72.0,93,30.33,5.0,Calm,Calm,-,N/A,,Overcast,0,2013-07-14 08:17:00
4:46 AM,73.4,71.6,94,30.33,5.0,Calm,Calm,-,N/A,,Partly Cloudy,0,2013-07-14 08:46:00
4:51 AM,73.9,72.0,93,30.31,5.0,Calm,Calm,-,N/A,,Partly Cloudy,0,2013-07-14 08:51:00
5:51 AM,73.9,72.0,93,30.31,5.0,Calm,Calm,-,N/A,,Clear,0,2013-07-14 09:51:00
6:51 AM,75.9,73.0,91,30.32,6.0,West,5.8,-,N/A,,Partly Cloudy,260,2013-07-14 10:51:00
7:40 AM,77.0,73.0,88,30.37,7.0,WSW,6.9,-,N/A,,Mostly Cloudy,250,2013-07-14 11:40:00
7:51 AM,77.0,73.0,88,30.34,7.0,WSW,4.6,-,N/A,,Mostly Cloudy,250,2013-07-14 11:51:00
8:51 AM,78.1,73.0,84,30.34,7.0,Variable,4.6,-,N/A,,Scattered Clouds,0,2013-07-14 12:51:00
9:05 AM,79.0,73.9,84,30.36,7.0,Calm,Calm,-,N/A,,Mostly Cloudy,0,2013-07-14 13:05:00
9:16 AM,79.0,73.0,82,30.36,8.0,Variable,3.5,-,N/A,,Mostly Cloudy,0,2013-07-14 13:16:00
9:24 AM,79.0,73.9,84,30.36,8.0,West,6.9,-,N/A,,Scattered Clouds,270,2013-07-14 13:24:00
9:51 AM,81.0,73.0,77,30.32,8.0,Variable,4.6,-,N/A,,Partly Cloudy,0,2013-07-14 13:51:00
10:48 AM,82.4,71.6,70,30.35,9.0,West,8.1,-,N/A,,Mostly Cloudy,280,2013-07-14 14:48:00
10:51 AM,82.0,72.0,71,30.32,9.0,West,8.1,-,N/A,,Mostly Cloudy,270,2013-07-14 14:51:00
10:58 AM,82.9,71.1,67,30.35,9.0,Variable,4.6,-,N/A,,Scattered Clouds,0,2013-07-14 14:58:00
11:51 AM,86.0,73.9,67,30.32,9.0,Variable,3.5,-,N/A,,Mostly Cloudy,0,2013-07-14 15:51:00
12:51 PM,87.1,73.0,63,30.30,9.0,WSW,3.5,-,N/A,,Scattered Clouds,240,2013-07-14 16:51:00
1:51 PM,87.1,71.1,59,30.29,9.0,Variable,3.5,-,N/A,,Mostly Cloudy,0,2013-07-14 17:51:00
2:51 PM,86.0,70.0,59,30.28,9.0,Calm,Calm,-,N/A,,Mostly Cloudy,0,2013-07-14 18:51:00
3:51 PM,88.0,71.1,57,30.26,9.0,West,6.9,-,N/A,,Partly Cloudy,270,2013-07-14 19:51:00
4:51 PM,88.0,68.0,51,30.25,9.0,Variable,5.8,-,N/A,,Partly Cloudy,0,2013-07-14 20:51:00
5:51 PM,88.0,68.0,51,30.24,9.0,Variable,6.9,-,N/A,,Clear,0,2013-07-14 21:51:00
6:51 PM,87.1,69.1,55,30.24,9.0,Variable,4.6,-,N/A,,Partly Cloudy,0,2013-07-14 22:51:00
7:51 PM,86.0,66.9,53,30.24,9.0,Variable,4.6,-,N/A,,Clear,0,2013-07-14 23:51:00
8:51 PM,86.0,66.9,53,30.24,10.0,Variable,3.5,-,N/A,,Clear,0,2013-07-15 00:51:00
9:51 PM,84.0,66.9,56,30.25,10.0,Variable,5.8,-,N/A,,Clear,0,2013-07-15 01:51:00
10:51 PM,84.0,66.9,56,30.26,10.0,WSW,4.6,-,N/A,,Clear,250,2013-07-15 02:51:00
11:51 PM,82.9,68.0,60,30.25,10.0,Variable,3.5,-,N/A,,Clear,0,2013-07-15 03:51:00